sensor_id;sensor_type;location;lat;lon;timestamp;P1;durP1;ratioP1;P2;durP2;ratioP2
28373;SDS011;15616;40.148;-102.718;2022-07-11T00:02:22;6.78;;;4.53;;
28373;SDS011;15616;40.148;-102.718;2022-07-11T00:04:48;6.70;;;4.50;;
28373;SDS011;15616;40.148;-102.718;2022-07-11T00:07:14;6.30;;;4.75;;
28373;SDS011;15616;40.148;-102.718;2022-07-11T00:09:41;6.63;;;4.40;;
28373;SDS011;15616;40.148;-102.718;2022-07-11T00:12:08;6.60;;;4.60;;
28373;SDS011;15616;40.148;-102.718;2022-07-11T00:14:35;6.22;;;4.80;;
28373;SDS011;15616;40.148;-102.718;2022-07-11T00:17:05;6.78;;;4.60;;
28373;SDS011;15616;40.148;-102.718;2022-07-11T00:19:35;7.50;;;4.90;;
28373;SDS011;15616;40.148;-102.718;2022-07-11T00:22:02;7.60;;;5.00;;
28373;SDS011;15616;40.148;-102.718;2022-07-11T00:24:28;7.38;;;4.75;;
28373;SDS011;15616;40.148;-102.718;2022-07-11T00:26:54;6.88;;;4.97;;
28373;SDS011;15616;40.148;-102.718;2022-07-11T00:29:20;6.38;;;4.60;;
28373;SDS011;15616;40.148;-102.718;2022-07-11T00:31:46;5.78;;;4.35;;
28373;SDS011;15616;40.148;-102.718;2022-07-11T00:34:12;6.68;;;4.60;;
28373;SDS011;15616;40.148;-102.718;2022-07-11T00:36:40;6.35;;;4.50;;
28373;SDS011;15616;40.148;-102.718;2022-07-11T00:39:06;6.53;;;4.40;;
28373;SDS011;15616;40.148;-102.718;2022-07-11T00:41:32;6.55;;;4.40;;
28373;SDS011;15616;40.148;-102.718;2022-07-11T00:43:59;7.03;;;4.70;;
28373;SDS011;15616;40.148;-102.718;2022-07-11T00:46:27;6.55;;;4.40;;
28373;SDS011;15616;40.148;-102.718;2022-07-11T00:48:54;5.75;;;4.65;;
28373;SDS011;15616;40.148;-102.718;2022-07-11T00:51:21;5.97;;;4.43;;
28373;SDS011;15616;40.148;-102.718;2022-07-11T00:53:49;5.90;;;4.30;;
28373;SDS011;15616;40.148;-102.718;2022-07-11T00:56:17;7.47;;;4.40;;
28373;SDS011;15616;40.148;-102.718;2022-07-11T00:58:47;6.20;;;4.32;;
28373;SDS011;15616;40.148;-102.718;2022-07-11T01:01:14;7.32;;;4.90;;
28373;SDS011;15616;40.148;-102.718;2022-07-11T01:03:41;6.10;;;4.50;;
28373;SDS011;15616;40.148;-102.718;2022-07-11T01:06:07;5.32;;;4.28;;
28373;SDS011;15616;40.148;-102.718;2022-07-11T01:08:37;5.53;;;4.15;;
28373;SDS011;15616;40.148;-102.718;2022-07-11T01:11:04;6.03;;;4.25;;
28373;SDS011;15616;40.148;-102.718;2022-07-11T01:13:34;6.32;;;4.70;;
28373;SDS011;15616;40.148;-102.718;2022-07-11T01:16:07;5.03;;;4.20;;
28373;SDS011;15616;40.148;-102.718;2022-07-11T01:18:33;5.13;;;3.90;;
28373;SDS011;15616;40.148;-102.718;2022-07-11T01:20:59;6.35;;;4.30;;
28373;SDS011;15616;40.148;-102.718;2022-07-11T01:23:27;5.43;;;4.20;;
28373;SDS011;15616;40.148;-102.718;2022-07-11T01:25:52;5.45;;;4.22;;
28373;SDS011;15616;40.148;-102.718;2022-07-11T01:28:18;6.35;;;4.53;;
28373;SDS011;15616;40.148;-102.718;2022-07-11T01:30:44;5.80;;;4.50;;
28373;SDS011;15616;40.148;-102.718;2022-07-11T01:33:10;6.63;;;4.38;;
28373;SDS011;15616;40.148;-102.718;2022-07-11T01:35:36;6.50;;;4.30;;
28373;SDS011;15616;40.148;-102.718;2022-07-11T01:38:02;6.60;;;4.53;;
28373;SDS011;15616;40.148;-102.718;2022-07-11T01:40:28;6.20;;;4.00;;
28373;SDS011;15616;40.148;-102.718;2022-07-11T01:42:54;6.70;;;4.63;;
28373;SDS011;15616;40.148;-102.718;2022-07-11T01:45:20;6.68;;;4.30;;
28373;SDS011;15616;40.148;-102.718;2022-07-11T01:47:46;6.30;;;4.20;;
28373;SDS011;15616;40.148;-102.718;2022-07-11T01:50:12;6.10;;;4.57;;
28373;SDS011;15616;40.148;-102.718;2022-07-11T01:52:38;6.68;;;4.43;;
28373;SDS011;15616;40.148;-102.718;2022-07-11T01:55:05;7.07;;;4.43;;
28373;SDS011;15616;40.148;-102.718;2022-07-11T01:57:32;5.70;;;4.35;;
28373;SDS011;15616;40.148;-102.718;2022-07-11T01:59:58;7.18;;;4.72;;
28373;SDS011;15616;40.148;-102.718;2022-07-11T02:02:23;5.45;;;4.32;;
28373;SDS011;15616;40.148;-102.718;2022-07-11T02:04:49;6.43;;;4.70;;
28373;SDS011;15616;40.148;-102.718;2022-07-11T02:07:15;6.22;;;4.50;;
28373;SDS011;15616;40.148;-102.718;2022-07-11T02:10:01;5.90;;;4.22;;
28373;SDS011;15616;40.148;-102.718;2022-07-11T02:12:27;6.55;;;4.50;;
28373;SDS011;15616;40.148;-102.718;2022-07-11T02:14:53;6.95;;;4.63;;
28373;SDS011;15616;40.148;-102.718;2022-07-11T02:17:19;5.82;;;4.13;;
28373;SDS011;15616;40.148;-102.718;2022-07-11T02:19:45;6.03;;;4.38;;
28373;SDS011;15616;40.148;-102.718;2022-07-11T02:22:11;5.25;;;4.10;;
28373;SDS011;15616;40.148;-102.718;2022-07-11T02:24:40;10.07;;;4.55;;
28373;SDS011;15616;40.148;-102.718;2022-07-11T02:27:06;7.68;;;4.18;;
28373;SDS011;15616;40.148;-102.718;2022-07-11T02:29:32;6.25;;;4.18;;
28373;SDS011;15616;40.148;-102.718;2022-07-11T02:31:57;6.05;;;4.50;;
28373;SDS011;15616;40.148;-102.718;2022-07-11T02:34:24;6.05;;;4.50;;
28373;SDS011;15616;40.148;-102.718;2022-07-11T02:36:50;6.85;;;4.50;;
28373;SDS011;15616;40.148;-102.718;2022-07-11T02:39:16;5.82;;;4.25;;
28373;SDS011;15616;40.148;-102.718;2022-07-11T02:41:42;7.05;;;4.30;;
28373;SDS011;15616;40.148;-102.718;2022-07-11T02:44:08;6.63;;;4.40;;
28373;SDS011;15616;40.148;-102.718;2022-07-11T02:46:34;6.07;;;4.15;;
28373;SDS011;15616;40.148;-102.718;2022-07-11T02:48:59;6.45;;;4.35;;
28373;SDS011;15616;40.148;-102.718;2022-07-11T02:51:25;7.38;;;4.43;;
28373;SDS011;15616;40.148;-102.718;2022-07-11T02:53:51;6.30;;;4.47;;
28373;SDS011;15616;40.148;-102.718;2022-07-11T02:56:18;6.38;;;4.38;;
28373;SDS011;15616;40.148;-102.718;2022-07-11T02:58:44;6.45;;;4.40;;
28373;SDS011;15616;40.148;-102.718;2022-07-11T03:01:10;7.00;;;4.40;;
28373;SDS011;15616;40.148;-102.718;2022-07-11T03:03:35;5.70;;;4.28;;
28373;SDS011;15616;40.148;-102.718;2022-07-11T03:06:01;6.93;;;4.40;;
28373;SDS011;15616;40.148;-102.718;2022-07-11T03:08:27;5.95;;;4.10;;
28373;SDS011;15616;40.148;-102.718;2022-07-11T03:10:53;5.90;;;4.20;;
28373;SDS011;15616;40.148;-102.718;2022-07-11T03:13:19;6.13;;;4.30;;
28373;SDS011;15616;40.148;-102.718;2022-07-11T03:15:45;6.40;;;3.95;;
28373;SDS011;15616;40.148;-102.718;2022-07-11T03:18:11;6.90;;;4.15;;
28373;SDS011;15616;40.148;-102.718;2022-07-11T03:20:37;6.57;;;4.32;;
28373;SDS011;15616;40.148;-102.718;2022-07-11T03:23:02;5.55;;;4.10;;
28373;SDS011;15616;40.148;-102.718;2022-07-11T03:25:28;6.72;;;4.45;;
28373;SDS011;15616;40.148;-102.718;2022-07-11T03:27:54;6.10;;;4.15;;
28373;SDS011;15616;40.148;-102.718;2022-07-11T03:30:20;5.93;;;4.03;;
28373;SDS011;15616;40.148;-102.718;2022-07-11T03:32:46;6.10;;;4.07;;
28373;SDS011;15616;40.148;-102.718;2022-07-11T03:35:12;5.53;;;4.05;;
28373;SDS011;15616;40.148;-102.718;2022-07-11T03:37:57;5.30;;;3.92;;
28373;SDS011;15616;40.148;-102.718;2022-07-11T03:40:22;5.55;;;4.07;;
28373;SDS011;15616;40.148;-102.718;2022-07-11T03:42:48;7.10;;;4.18;;
28373;SDS011;15616;40.148;-102.718;2022-07-11T03:45:14;6.80;;;4.53;;
28373;SDS011;15616;40.148;-102.718;2022-07-11T03:47:43;5.85;;;3.92;;
28373;SDS011;15616;40.148;-102.718;2022-07-11T03:50:09;6.55;;;4.10;;
28373;SDS011;15616;40.148;-102.718;2022-07-11T03:52:35;5.97;;;4.13;;
28373;SDS011;15616;40.148;-102.718;2022-07-11T03:55:01;6.07;;;4.00;;
28373;SDS011;15616;40.148;-102.718;2022-07-11T03:57:27;7.18;;;4.43;;
28373;SDS011;15616;40.148;-102.718;2022-07-11T03:59:53;7.57;;;4.30;;
28373;SDS011;15616;40.148;-102.718;2022-07-11T04:02:18;9.18;;;4.30;;
28373;SDS011;15616;40.148;-102.718;2022-07-11T04:04:44;6.18;;;4.13;;
28373;SDS011;15616;40.148;-102.718;2022-07-11T04:07:10;5.45;;;3.65;;
28373;SDS011;15616;40.148;-102.718;2022-07-11T04:09:36;10.60;;;4.13;;
28373;SDS011;15616;40.148;-102.718;2022-07-11T04:12:02;5.28;;;4.00;;
28373;SDS011;15616;40.148;-102.718;2022-07-11T04:14:28;5.18;;;3.50;;
28373;SDS011;15616;40.148;-102.718;2022-07-11T04:16:54;5.70;;;3.88;;
28373;SDS011;15616;40.148;-102.718;2022-07-11T04:19:20;5.60;;;3.97;;
28373;SDS011;15616;40.148;-102.718;2022-07-11T04:21:46;5.35;;;3.90;;
28373;SDS011;15616;40.148;-102.718;2022-07-11T04:24:11;5.53;;;3.63;;
28373;SDS011;15616;40.148;-102.718;2022-07-11T04:26:37;5.97;;;4.20;;
28373;SDS011;15616;40.148;-102.718;2022-07-11T04:29:03;5.10;;;3.80;;
28373;SDS011;15616;40.148;-102.718;2022-07-11T04:31:29;5.72;;;3.85;;
28373;SDS011;15616;40.148;-102.718;2022-07-11T04:33:55;6.55;;;3.97;;
28373;SDS011;15616;40.148;-102.718;2022-07-11T04:36:21;6.07;;;3.65;;
28373;SDS011;15616;40.148;-102.718;2022-07-11T04:38:47;5.63;;;3.65;;
28373;SDS011;15616;40.148;-102.718;2022-07-11T04:41:14;4.75;;;3.40;;
28373;SDS011;15616;40.148;-102.718;2022-07-11T04:43:40;5.65;;;4.15;;
28373;SDS011;15616;40.148;-102.718;2022-07-11T04:46:06;6.15;;;3.88;;
28373;SDS011;15616;40.148;-102.718;2022-07-11T04:48:32;6.43;;;3.90;;
28373;SDS011;15616;40.148;-102.718;2022-07-11T04:50:58;7.60;;;4.03;;
28373;SDS011;15616;40.148;-102.718;2022-07-11T04:53:24;5.20;;;3.65;;
28373;SDS011;15616;40.148;-102.718;2022-07-11T04:55:50;8.52;;;3.50;;
28373;SDS011;15616;40.148;-102.718;2022-07-11T04:58:16;5.38;;;3.70;;
28373;SDS011;15616;40.148;-102.718;2022-07-11T05:00:42;6.25;;;3.83;;
28373;SDS011;15616;40.148;-102.718;2022-07-11T05:03:08;5.10;;;3.60;;
28373;SDS011;15616;40.148;-102.718;2022-07-11T05:05:34;5.45;;;3.45;;
28373;SDS011;15616;40.148;-102.718;2022-07-11T05:08:00;5.20;;;3.70;;
28373;SDS011;15616;40.148;-102.718;2022-07-11T05:10:26;4.43;;;3.30;;
28373;SDS011;15616;40.148;-102.718;2022-07-11T05:12:52;6.10;;;3.80;;
28373;SDS011;15616;40.148;-102.718;2022-07-11T05:15:18;4.35;;;3.50;;
28373;SDS011;15616;40.148;-102.718;2022-07-11T05:17:44;5.35;;;3.80;;
28373;SDS011;15616;40.148;-102.718;2022-07-11T05:20:10;4.60;;;3.50;;
28373;SDS011;15616;40.148;-102.718;2022-07-11T05:22:36;4.65;;;3.30;;
28373;SDS011;15616;40.148;-102.718;2022-07-11T05:25:02;4.68;;;3.38;;
28373;SDS011;15616;40.148;-102.718;2022-07-11T05:27:28;7.38;;;3.53;;
28373;SDS011;15616;40.148;-102.718;2022-07-11T05:29:54;6.22;;;3.70;;
28373;SDS011;15616;40.148;-102.718;2022-07-11T05:32:20;8.18;;;3.60;;
28373;SDS011;15616;40.148;-102.718;2022-07-11T05:34:46;7.90;;;3.83;;
28373;SDS011;15616;40.148;-102.718;2022-07-11T05:37:12;6.85;;;3.55;;
28373;SDS011;15616;40.148;-102.718;2022-07-11T05:39:38;10.30;;;3.80;;
28373;SDS011;15616;40.148;-102.718;2022-07-11T05:42:04;5.47;;;3.67;;
28373;SDS011;15616;40.148;-102.718;2022-07-11T05:44:30;7.93;;;3.78;;
28373;SDS011;15616;40.148;-102.718;2022-07-11T05:47:00;11.05;;;4.15;;
28373;SDS011;15616;40.148;-102.718;2022-07-11T05:49:27;11.07;;;4.00;;
28373;SDS011;15616;40.148;-102.718;2022-07-11T05:51:55;8.57;;;4.10;;
28373;SDS011;15616;40.148;-102.718;2022-07-11T05:54:21;7.53;;;3.95;;
28373;SDS011;15616;40.148;-102.718;2022-07-11T05:56:47;6.65;;;3.67;;
28373;SDS011;15616;40.148;-102.718;2022-07-11T05:59:13;6.85;;;3.45;;
28373;SDS011;15616;40.148;-102.718;2022-07-11T06:01:40;6.93;;;3.10;;
28373;SDS011;15616;40.148;-102.718;2022-07-11T06:04:06;9.02;;;3.95;;
28373;SDS011;15616;40.148;-102.718;2022-07-11T06:06:32;6.60;;;3.72;;
28373;SDS011;15616;40.148;-102.718;2022-07-11T06:08:58;11.77;;;3.67;;
28373;SDS011;15616;40.148;-102.718;2022-07-11T06:11:24;12.25;;;4.05;;
28373;SDS011;15616;40.148;-102.718;2022-07-11T06:13:50;9.98;;;3.90;;
28373;SDS011;15616;40.148;-102.718;2022-07-11T06:16:17;9.50;;;3.95;;
28373;SDS011;15616;40.148;-102.718;2022-07-11T06:18:43;11.15;;;3.83;;
28373;SDS011;15616;40.148;-102.718;2022-07-11T06:21:10;8.32;;;3.83;;
28373;SDS011;15616;40.148;-102.718;2022-07-11T06:23:36;12.10;;;3.75;;
28373;SDS011;15616;40.148;-102.718;2022-07-11T06:26:02;7.18;;;3.25;;
28373;SDS011;15616;40.148;-102.718;2022-07-11T06:28:29;8.00;;;3.75;;
28373;SDS011;15616;40.148;-102.718;2022-07-11T06:30:55;9.60;;;4.00;;
28373;SDS011;15616;40.148;-102.718;2022-07-11T06:33:21;12.40;;;3.78;;
28373;SDS011;15616;40.148;-102.718;2022-07-11T06:35:47;8.25;;;3.47;;
28373;SDS011;15616;40.148;-102.718;2022-07-11T06:38:15;13.38;;;3.90;;
28373;SDS011;15616;40.148;-102.718;2022-07-11T06:40:41;10.55;;;3.55;;
28373;SDS011;15616;40.148;-102.718;2022-07-11T06:43:11;9.10;;;3.50;;
28373;SDS011;15616;40.148;-102.718;2022-07-11T06:45:37;10.90;;;3.85;;
28373;SDS011;15616;40.148;-102.718;2022-07-11T06:48:03;17.10;;;4.45;;
28373;SDS011;15616;40.148;-102.718;2022-07-11T06:50:30;15.15;;;4.40;;
28373;SDS011;15616;40.148;-102.718;2022-07-11T06:52:57;11.27;;;3.90;;
28373;SDS011;15616;40.148;-102.718;2022-07-11T06:55:23;14.50;;;4.22;;
28373;SDS011;15616;40.148;-102.718;2022-07-11T06:57:49;11.45;;;4.07;;
28373;SDS011;15616;40.148;-102.718;2022-07-11T07:00:15;11.48;;;3.67;;
28373;SDS011;15616;40.148;-102.718;2022-07-11T07:02:43;16.58;;;4.15;;
28373;SDS011;15616;40.148;-102.718;2022-07-11T07:05:09;12.20;;;4.10;;
28373;SDS011;15616;40.148;-102.718;2022-07-11T07:07:35;9.00;;;3.55;;
28373;SDS011;15616;40.148;-102.718;2022-07-11T07:10:02;10.27;;;4.13;;
28373;SDS011;15616;40.148;-102.718;2022-07-11T07:12:29;10.55;;;4.25;;
28373;SDS011;15616;40.148;-102.718;2022-07-11T07:14:54;8.52;;;4.00;;
28373;SDS011;15616;40.148;-102.718;2022-07-11T07:17:20;13.13;;;4.28;;
28373;SDS011;15616;40.148;-102.718;2022-07-11T07:19:46;8.98;;;4.05;;
28373;SDS011;15616;40.148;-102.718;2022-07-11T07:22:12;14.80;;;4.63;;
28373;SDS011;15616;40.148;-102.718;2022-07-11T07:24:42;21.98;;;4.80;;
28373;SDS011;15616;40.148;-102.718;2022-07-11T07:27:09;13.65;;;4.68;;
28373;SDS011;15616;40.148;-102.718;2022-07-11T07:29:35;10.68;;;3.88;;
28373;SDS011;15616;40.148;-102.718;2022-07-11T07:32:01;9.75;;;4.07;;
28373;SDS011;15616;40.148;-102.718;2022-07-11T07:34:28;16.38;;;4.35;;
28373;SDS011;15616;40.148;-102.718;2022-07-11T07:36:54;14.02;;;4.25;;
28373;SDS011;15616;40.148;-102.718;2022-07-11T07:39:20;10.63;;;3.97;;
28373;SDS011;15616;40.148;-102.718;2022-07-11T07:41:46;13.60;;;4.50;;
28373;SDS011;15616;40.148;-102.718;2022-07-11T07:44:12;17.85;;;4.20;;
28373;SDS011;15616;40.148;-102.718;2022-07-11T07:46:38;8.40;;;4.70;;
28373;SDS011;15616;40.148;-102.718;2022-07-11T07:49:04;11.35;;;4.25;;
28373;SDS011;15616;40.148;-102.718;2022-07-11T07:51:30;19.35;;;4.35;;
28373;SDS011;15616;40.148;-102.718;2022-07-11T07:53:56;15.10;;;4.22;;
28373;SDS011;15616;40.148;-102.718;2022-07-11T07:56:22;12.73;;;4.40;;
28373;SDS011;15616;40.148;-102.718;2022-07-11T07:58:49;10.65;;;4.53;;
28373;SDS011;15616;40.148;-102.718;2022-07-11T08:01:16;14.55;;;4.00;;
28373;SDS011;15616;40.148;-102.718;2022-07-11T08:04:04;12.45;;;4.28;;
28373;SDS011;15616;40.148;-102.718;2022-07-11T08:06:31;13.77;;;4.43;;
28373;SDS011;15616;40.148;-102.718;2022-07-11T08:08:59;14.88;;;4.55;;
28373;SDS011;15616;40.148;-102.718;2022-07-11T08:11:26;16.95;;;4.60;;
28373;SDS011;15616;40.148;-102.718;2022-07-11T08:13:52;12.88;;;4.57;;
28373;SDS011;15616;40.148;-102.718;2022-07-11T08:16:18;13.65;;;4.43;;
28373;SDS011;15616;40.148;-102.718;2022-07-11T08:18:45;15.85;;;4.55;;
28373;SDS011;15616;40.148;-102.718;2022-07-11T08:21:11;16.63;;;3.90;;
28373;SDS011;15616;40.148;-102.718;2022-07-11T08:23:37;12.38;;;4.35;;
28373;SDS011;15616;40.148;-102.718;2022-07-11T08:26:03;20.73;;;4.55;;
28373;SDS011;15616;40.148;-102.718;2022-07-11T08:28:30;9.93;;;3.83;;
28373;SDS011;15616;40.148;-102.718;2022-07-11T08:30:56;12.32;;;4.13;;
28373;SDS011;15616;40.148;-102.718;2022-07-11T08:33:22;17.45;;;4.28;;
28373;SDS011;15616;40.148;-102.718;2022-07-11T08:35:48;11.40;;;3.95;;
28373;SDS011;15616;40.148;-102.718;2022-07-11T08:38:14;27.42;;;4.50;;
28373;SDS011;15616;40.148;-102.718;2022-07-11T08:40:40;15.40;;;4.20;;
28373;SDS011;15616;40.148;-102.718;2022-07-11T08:43:13;27.27;;;4.35;;
28373;SDS011;15616;40.148;-102.718;2022-07-11T08:45:40;15.43;;;4.50;;
28373;SDS011;15616;40.148;-102.718;2022-07-11T08:48:07;12.65;;;4.32;;
28373;SDS011;15616;40.148;-102.718;2022-07-11T08:50:34;14.15;;;4.10;;
28373;SDS011;15616;40.148;-102.718;2022-07-11T08:53:02;13.05;;;4.55;;
28373;SDS011;15616;40.148;-102.718;2022-07-11T08:55:30;13.23;;;3.90;;
28373;SDS011;15616;40.148;-102.718;2022-07-11T08:57:56;11.68;;;4.07;;
28373;SDS011;15616;40.148;-102.718;2022-07-11T09:00:23;21.27;;;4.40;;
28373;SDS011;15616;40.148;-102.718;2022-07-11T09:02:49;9.23;;;4.15;;
28373;SDS011;15616;40.148;-102.718;2022-07-11T09:05:16;23.02;;;4.82;;
28373;SDS011;15616;40.148;-102.718;2022-07-11T09:07:49;16.67;;;4.00;;
28373;SDS011;15616;40.148;-102.718;2022-07-11T09:10:16;19.10;;;5.03;;
28373;SDS011;15616;40.148;-102.718;2022-07-11T09:17:58;13.73;;;3.78;;
28373;SDS011;15616;40.148;-102.718;2022-07-11T09:20:24;16.83;;;4.10;;
28373;SDS011;15616;40.148;-102.718;2022-07-11T09:22:50;21.00;;;4.22;;
28373;SDS011;15616;40.148;-102.718;2022-07-11T09:25:41;19.52;;;4.47;;
28373;SDS011;15616;40.148;-102.718;2022-07-11T09:28:07;9.38;;;4.32;;
28373;SDS011;15616;40.148;-102.718;2022-07-11T09:30:35;15.68;;;4.93;;
28373;SDS011;15616;40.148;-102.718;2022-07-11T09:35:41;11.15;;;4.10;;
28373;SDS011;15616;40.148;-102.718;2022-07-11T09:38:11;16.42;;;4.38;;
28373;SDS011;15616;40.148;-102.718;2022-07-11T09:40:42;12.15;;;3.95;;
28373;SDS011;15616;40.148;-102.718;2022-07-11T09:43:09;11.65;;;3.88;;
28373;SDS011;15616;40.148;-102.718;2022-07-11T09:45:35;12.27;;;4.43;;
28373;SDS011;15616;40.148;-102.718;2022-07-11T09:48:07;13.45;;;4.18;;
28373;SDS011;15616;40.148;-102.718;2022-07-11T09:50:34;9.82;;;4.10;;
28373;SDS011;15616;40.148;-102.718;2022-07-11T09:55:40;10.27;;;4.20;;
28373;SDS011;15616;40.148;-102.718;2022-07-11T09:58:11;14.10;;;4.40;;
28373;SDS011;15616;40.148;-102.718;2022-07-11T10:00:39;13.35;;;4.65;;
28373;SDS011;15616;40.148;-102.718;2022-07-11T10:03:07;10.52;;;4.63;;
28373;SDS011;15616;40.148;-102.718;2022-07-11T10:05:33;10.73;;;4.90;;
28373;SDS011;15616;40.148;-102.718;2022-07-11T10:08:00;19.92;;;4.70;;
28373;SDS011;15616;40.148;-102.718;2022-07-11T10:10:27;17.55;;;4.55;;
28373;SDS011;15616;40.148;-102.718;2022-07-11T10:12:54;13.07;;;4.85;;
28373;SDS011;15616;40.148;-102.718;2022-07-11T10:15:26;12.65;;;4.53;;
28373;SDS011;15616;40.148;-102.718;2022-07-11T10:18:05;12.23;;;5.07;;
28373;SDS011;15616;40.148;-102.718;2022-07-11T10:23:28;9.98;;;4.82;;
28373;SDS011;15616;40.148;-102.718;2022-07-11T10:26:06;11.82;;;4.63;;
28373;SDS011;15616;40.148;-102.718;2022-07-11T10:28:44;11.70;;;4.82;;
28373;SDS011;15616;40.148;-102.718;2022-07-11T10:31:32;10.05;;;4.72;;
28373;SDS011;15616;40.148;-102.718;2022-07-11T10:34:03;12.70;;;4.47;;
28373;SDS011;15616;40.148;-102.718;2022-07-11T10:36:33;9.82;;;4.85;;
28373;SDS011;15616;40.148;-102.718;2022-07-11T10:39:19;13.35;;;4.70;;
28373;SDS011;15616;40.148;-102.718;2022-07-11T10:41:52;11.05;;;5.13;;
28373;SDS011;15616;40.148;-102.718;2022-07-11T10:44:23;10.00;;;5.13;;
28373;SDS011;15616;40.148;-102.718;2022-07-11T10:46:50;25.33;;;5.20;;
28373;SDS011;15616;40.148;-102.718;2022-07-11T10:52:08;20.05;;;5.18;;
28373;SDS011;15616;40.148;-102.718;2022-07-11T11:00:11;9.75;;;4.95;;
28373;SDS011;15616;40.148;-102.718;2022-07-11T11:05:51;15.10;;;5.15;;
28373;SDS011;15616;40.148;-102.718;2022-07-11T11:11:00;20.17;;;5.05;;
28373;SDS011;15616;40.148;-102.718;2022-07-11T11:13:31;12.00;;;5.38;;
28373;SDS011;15616;40.148;-102.718;2022-07-11T11:16:01;16.60;;;4.90;;
28373;SDS011;15616;40.148;-102.718;2022-07-11T11:18:34;10.88;;;4.65;;
28373;SDS011;15616;40.148;-102.718;2022-07-11T11:26:07;11.65;;;4.60;;
28373;SDS011;15616;40.148;-102.718;2022-07-11T11:29:04;13.63;;;4.85;;
28373;SDS011;15616;40.148;-102.718;2022-07-11T11:31:31;15.55;;;5.10;;
28373;SDS011;15616;40.148;-102.718;2022-07-11T11:34:01;14.75;;;4.97;;
28373;SDS011;15616;40.148;-102.718;2022-07-11T11:36:29;19.13;;;5.32;;
28373;SDS011;15616;40.148;-102.718;2022-07-11T11:39:02;17.90;;;4.70;;
28373;SDS011;15616;40.148;-102.718;2022-07-11T11:41:30;9.30;;;4.75;;
28373;SDS011;15616;40.148;-102.718;2022-07-11T11:43:58;14.77;;;5.15;;
28373;SDS011;15616;40.148;-102.718;2022-07-11T11:46:26;14.93;;;5.07;;
28373;SDS011;15616;40.148;-102.718;2022-07-11T11:49:00;16.67;;;5.00;;
28373;SDS011;15616;40.148;-102.718;2022-07-11T11:51:28;15.57;;;5.35;;
28373;SDS011;15616;40.148;-102.718;2022-07-11T11:53:56;12.40;;;4.80;;
28373;SDS011;15616;40.148;-102.718;2022-07-11T11:56:27;15.43;;;5.05;;
28373;SDS011;15616;40.148;-102.718;2022-07-11T12:01:41;21.27;;;5.63;;
28373;SDS011;15616;40.148;-102.718;2022-07-11T12:04:12;13.32;;;6.07;;
28373;SDS011;15616;40.148;-102.718;2022-07-11T12:06:41;16.13;;;6.10;;
28373;SDS011;15616;40.148;-102.718;2022-07-11T12:09:18;13.00;;;5.72;;
28373;SDS011;15616;40.148;-102.718;2022-07-11T12:11:48;14.43;;;5.68;;
28373;SDS011;15616;40.148;-102.718;2022-07-11T12:14:37;18.27;;;6.10;;
28373;SDS011;15616;40.148;-102.718;2022-07-11T12:17:03;18.05;;;5.57;;
28373;SDS011;15616;40.148;-102.718;2022-07-11T12:19:34;13.48;;;5.75;;
28373;SDS011;15616;40.148;-102.718;2022-07-11T12:22:03;25.80;;;5.68;;
28373;SDS011;15616;40.148;-102.718;2022-07-11T12:24:30;16.27;;;5.88;;
28373;SDS011;15616;40.148;-102.718;2022-07-11T12:26:56;35.78;;;6.95;;
28373;SDS011;15616;40.148;-102.718;2022-07-11T12:29:23;28.10;;;6.88;;
28373;SDS011;15616;40.148;-102.718;2022-07-11T12:37:08;27.83;;;6.40;;
28373;SDS011;15616;40.148;-102.718;2022-07-11T12:39:36;13.07;;;5.60;;
28373;SDS011;15616;40.148;-102.718;2022-07-11T12:45:09;20.88;;;5.80;;
28373;SDS011;15616;40.148;-102.718;2022-07-11T12:47:43;15.13;;;5.65;;
28373;SDS011;15616;40.148;-102.718;2022-07-11T12:50:11;10.15;;;5.55;;
28373;SDS011;15616;40.148;-102.718;2022-07-11T12:52:39;15.95;;;5.10;;
28373;SDS011;15616;40.148;-102.718;2022-07-11T12:55:07;14.32;;;5.55;;
28373;SDS011;15616;40.148;-102.718;2022-07-11T12:57:37;13.48;;;4.90;;
28373;SDS011;15616;40.148;-102.718;2022-07-11T13:00:13;17.02;;;5.18;;
28373;SDS011;15616;40.148;-102.718;2022-07-11T13:02:51;14.63;;;5.03;;
28373;SDS011;15616;40.148;-102.718;2022-07-11T13:05:17;25.58;;;6.28;;
28373;SDS011;15616;40.148;-102.718;2022-07-11T13:07:44;13.77;;;5.10;;
28373;SDS011;15616;40.148;-102.718;2022-07-11T13:10:28;20.92;;;6.28;;
28373;SDS011;15616;40.148;-102.718;2022-07-11T13:13:15;11.45;;;4.93;;
28373;SDS011;15616;40.148;-102.718;2022-07-11T13:15:41;16.17;;;5.63;;
28373;SDS011;15616;40.148;-102.718;2022-07-11T13:18:07;18.77;;;5.30;;
28373;SDS011;15616;40.148;-102.718;2022-07-11T13:20:34;12.02;;;5.70;;
28373;SDS011;15616;40.148;-102.718;2022-07-11T13:23:00;11.55;;;6.30;;
28373;SDS011;15616;40.148;-102.718;2022-07-11T13:25:27;20.95;;;5.90;;
28373;SDS011;15616;40.148;-102.718;2022-07-11T13:27:54;15.05;;;6.25;;
28373;SDS011;15616;40.148;-102.718;2022-07-11T13:30:21;18.77;;;6.53;;
28373;SDS011;15616;40.148;-102.718;2022-07-11T13:32:52;26.35;;;6.38;;
28373;SDS011;15616;40.148;-102.718;2022-07-11T13:35:18;13.73;;;6.50;;
28373;SDS011;15616;40.148;-102.718;2022-07-11T13:37:45;36.30;;;6.15;;
28373;SDS011;15616;40.148;-102.718;2022-07-11T13:40:13;18.92;;;5.78;;
28373;SDS011;15616;40.148;-102.718;2022-07-11T13:42:42;14.13;;;6.70;;
28373;SDS011;15616;40.148;-102.718;2022-07-11T13:45:12;26.35;;;6.55;;
28373;SDS011;15616;40.148;-102.718;2022-07-11T13:47:38;17.05;;;6.43;;
28373;SDS011;15616;40.148;-102.718;2022-07-11T13:50:04;24.92;;;5.95;;
28373;SDS011;15616;40.148;-102.718;2022-07-11T13:52:31;12.52;;;5.65;;
28373;SDS011;15616;40.148;-102.718;2022-07-11T13:54:57;14.75;;;6.32;;
28373;SDS011;15616;40.148;-102.718;2022-07-11T13:57:24;19.20;;;6.60;;
28373;SDS011;15616;40.148;-102.718;2022-07-11T13:59:50;19.88;;;6.97;;
28373;SDS011;15616;40.148;-102.718;2022-07-11T14:02:16;22.00;;;7.10;;
28373;SDS011;15616;40.148;-102.718;2022-07-11T14:04:43;13.02;;;6.45;;
28373;SDS011;15616;40.148;-102.718;2022-07-11T14:07:10;12.15;;;6.13;;
28373;SDS011;15616;40.148;-102.718;2022-07-11T14:09:37;9.05;;;5.55;;
28373;SDS011;15616;40.148;-102.718;2022-07-11T14:12:05;20.50;;;6.57;;
28373;SDS011;15616;40.148;-102.718;2022-07-11T14:14:31;11.63;;;5.45;;
28373;SDS011;15616;40.148;-102.718;2022-07-11T14:17:00;17.55;;;6.22;;
28373;SDS011;15616;40.148;-102.718;2022-07-11T14:19:27;13.82;;;5.85;;
28373;SDS011;15616;40.148;-102.718;2022-07-11T14:21:53;8.90;;;5.70;;
28373;SDS011;15616;40.148;-102.718;2022-07-11T14:24:19;15.95;;;6.00;;
28373;SDS011;15616;40.148;-102.718;2022-07-11T14:26:46;17.10;;;5.90;;
28373;SDS011;15616;40.148;-102.718;2022-07-11T14:29:12;16.38;;;6.60;;
28373;SDS011;15616;40.148;-102.718;2022-07-11T14:31:40;16.33;;;5.65;;
28373;SDS011;15616;40.148;-102.718;2022-07-11T14:34:07;11.00;;;6.00;;
28373;SDS011;15616;40.148;-102.718;2022-07-11T14:36:33;14.32;;;5.50;;
28373;SDS011;15616;40.148;-102.718;2022-07-11T14:38:59;13.20;;;6.60;;
28373;SDS011;15616;40.148;-102.718;2022-07-11T14:41:25;15.07;;;5.93;;
28373;SDS011;15616;40.148;-102.718;2022-07-11T14:43:51;11.55;;;5.95;;
28373;SDS011;15616;40.148;-102.718;2022-07-11T14:46:17;9.82;;;6.03;;
28373;SDS011;15616;40.148;-102.718;2022-07-11T14:48:43;16.63;;;6.50;;
28373;SDS011;15616;40.148;-102.718;2022-07-11T14:51:10;10.60;;;6.20;;